sensor_id;sensor_type;location;lat;lon;timestamp;P1;durP1;ratioP1;P2;durP2;ratioP2
7523;SDS011;3803;51.666;7.630;2022-12-20T00:00:10;3.95;;;3.40;;
7523;SDS011;3803;51.666;7.630;2022-12-20T00:00:31;3.28;;;2.97;;
7523;SDS011;3803;51.666;7.630;2022-12-20T00:00:51;3.20;;;2.90;;
7523;SDS011;3803;51.666;7.630;2022-12-20T00:01:13;3.00;;;2.70;;
7523;SDS011;3803;51.666;7.630;2022-12-20T00:01:38;3.53;;;2.80;;
7523;SDS011;3803;51.666;7.630;2022-12-20T00:01:59;3.63;;;2.88;;
7523;SDS011;3803;51.666;7.630;2022-12-20T00:02:20;3.70;;;2.80;;
7523;SDS011;3803;51.666;7.630;2022-12-20T00:02:40;3.10;;;2.80;;
7523;SDS011;3803;51.666;7.630;2022-12-20T00:03:01;3.20;;;2.90;;
7523;SDS011;3803;51.666;7.630;2022-12-20T00:03:21;3.50;;;3.20;;
7523;SDS011;3803;51.666;7.630;2022-12-20T00:03:42;3.60;;;3.30;;
7523;SDS011;3803;51.666;7.630;2022-12-20T00:04:04;3.65;;;3.20;;
7523;SDS011;3803;51.666;7.630;2022-12-20T00:04:25;3.40;;;3.10;;
7523;SDS011;3803;51.666;7.630;2022-12-20T00:04:45;3.30;;;3.00;;
7523;SDS011;3803;51.666;7.630;2022-12-20T00:05:06;2.97;;;2.78;;
7523;SDS011;3803;51.666;7.630;2022-12-20T00:05:27;2.80;;;2.60;;
7523;SDS011;3803;51.666;7.630;2022-12-20T00:05:48;3.00;;;2.80;;
7523;SDS011;3803;51.666;7.630;2022-12-20T00:06:09;3.50;;;3.20;;
7523;SDS011;3803;51.666;7.630;2022-12-20T00:06:32;3.50;;;3.20;;
7523;SDS011;3803;51.666;7.630;2022-12-20T00:06:54;3.50;;;3.20;;
7523;SDS011;3803;51.666;7.630;2022-12-20T00:07:15;3.30;;;3.00;;
7523;SDS011;3803;51.666;7.630;2022-12-20T00:07:35;3.23;;;2.93;;
7523;SDS011;3803;51.666;7.630;2022-12-20T00:07:56;3.40;;;3.10;;
7523;SDS011;3803;51.666;7.630;2022-12-20T00:08:16;3.60;;;3.30;;
7523;SDS011;3803;51.666;7.630;2022-12-20T00:08:37;4.20;;;3.40;;
7523;SDS011;3803;51.666;7.630;2022-12-20T00:08:59;3.72;;;3.30;;
7523;SDS011;3803;51.666;7.630;2022-12-20T00:09:20;3.50;;;2.88;;
7523;SDS011;3803;51.666;7.630;2022-12-20T00:09:41;3.60;;;2.80;;
7523;SDS011;3803;51.666;7.630;2022-12-20T00:10:02;4.27;;;2.90;;
7523;SDS011;3803;51.666;7.630;2022-12-20T00:10:23;4.83;;;3.13;;
7523;SDS011;3803;51.666;7.630;2022-12-20T00:10:44;3.88;;;3.00;;
7523;SDS011;3803;51.666;7.630;2022-12-20T00:11:05;3.47;;;2.80;;
7523;SDS011;3803;51.666;7.630;2022-12-20T00:11:28;3.20;;;2.70;;
7523;SDS011;3803;51.666;7.630;2022-12-20T00:11:49;3.60;;;2.95;;
7523;SDS011;3803;51.666;7.630;2022-12-20T00:12:10;3.40;;;3.00;;
7523;SDS011;3803;51.666;7.630;2022-12-20T00:12:31;3.25;;;2.95;;
7523;SDS011;3803;51.666;7.630;2022-12-20T00:12:51;3.00;;;2.70;;
7523;SDS011;3803;51.666;7.630;2022-12-20T00:13:12;3.45;;;2.80;;
7523;SDS011;3803;51.666;7.630;2022-12-20T00:13:33;3.90;;;3.08;;
7523;SDS011;3803;51.666;7.630;2022-12-20T00:13:55;4.00;;;2.92;;
7523;SDS011;3803;51.666;7.630;2022-12-20T00:14:16;3.20;;;2.90;;
7523;SDS011;3803;51.666;7.630;2022-12-20T00:14:37;3.17;;;2.80;;
7523;SDS011;3803;51.666;7.630;2022-12-20T00:14:57;3.40;;;3.10;;
7523;SDS011;3803;51.666;7.630;2022-12-20T00:15:18;3.80;;;3.00;;
7523;SDS011;3803;51.666;7.630;2022-12-20T00:15:38;3.10;;;2.70;;
7523;SDS011;3803;51.666;7.630;2022-12-20T00:16:12;3.80;;;2.73;;
7523;SDS011;3803;51.666;7.630;2022-12-20T00:16:35;4.25;;;3.10;;
7523;SDS011;3803;51.666;7.630;2022-12-20T00:16:56;4.35;;;3.00;;
7523;SDS011;3803;51.666;7.630;2022-12-20T00:17:16;4.10;;;2.90;;
7523;SDS011;3803;51.666;7.630;2022-12-20T00:17:37;3.28;;;2.70;;
7523;SDS011;3803;51.666;7.630;2022-12-20T00:17:58;2.75;;;2.55;;
7523;SDS011;3803;51.666;7.630;2022-12-20T00:18:19;2.70;;;2.50;;
7523;SDS011;3803;51.666;7.630;2022-12-20T00:18:40;2.70;;;2.50;;
7523;SDS011;3803;51.666;7.630;2022-12-20T00:19:03;3.00;;;2.70;;
7523;SDS011;3803;51.666;7.630;2022-12-20T00:19:25;3.03;;;2.70;;
7523;SDS011;3803;51.666;7.630;2022-12-20T00:19:46;3.00;;;2.70;;
7523;SDS011;3803;51.666;7.630;2022-12-20T00:20:07;3.00;;;2.60;;
7523;SDS011;3803;51.666;7.630;2022-12-20T00:20:28;3.20;;;2.70;;
7523;SDS011;3803;51.666;7.630;2022-12-20T00:20:56;3.30;;;2.70;;
7523;SDS011;3803;51.666;7.630;2022-12-20T00:21:17;3.03;;;2.72;;
7523;SDS011;3803;51.666;7.630;2022-12-20T00:21:39;3.78;;;2.80;;
7523;SDS011;3803;51.666;7.630;2022-12-20T00:22:00;3.88;;;2.90;;
7523;SDS011;3803;51.666;7.630;2022-12-20T00:22:20;4.60;;;3.00;;
7523;SDS011;3803;51.666;7.630;2022-12-20T00:22:41;3.90;;;2.90;;
7523;SDS011;3803;51.666;7.630;2022-12-20T00:23:01;4.07;;;2.80;;
7523;SDS011;3803;51.666;7.630;2022-12-20T00:23:22;3.85;;;2.70;;
7523;SDS011;3803;51.666;7.630;2022-12-20T00:23:43;4.85;;;2.88;;
7523;SDS011;3803;51.666;7.630;2022-12-20T00:24:04;4.53;;;2.77;;
7523;SDS011;3803;51.666;7.630;2022-12-20T00:24:25;4.00;;;2.72;;
7523;SDS011;3803;51.666;7.630;2022-12-20T00:24:46;2.80;;;2.60;;
7523;SDS011;3803;51.666;7.630;2022-12-20T00:25:07;2.90;;;2.60;;
7523;SDS011;3803;51.666;7.630;2022-12-20T00:25:27;2.78;;;2.58;;
7523;SDS011;3803;51.666;7.630;2022-12-20T00:25:48;2.70;;;2.50;;
7523;SDS011;3803;51.666;7.630;2022-12-20T00:26:10;4.03;;;2.60;;
7523;SDS011;3803;51.666;7.630;2022-12-20T00:26:33;4.50;;;2.60;;
7523;SDS011;3803;51.666;7.630;2022-12-20T00:26:54;4.45;;;2.80;;
7523;SDS011;3803;51.666;7.630;2022-12-20T00:27:15;2.90;;;2.65;;
7523;SDS011;3803;51.666;7.630;2022-12-20T00:27:36;2.88;;;2.60;;
7523;SDS011;3803;51.666;7.630;2022-12-20T00:27:57;2.60;;;2.40;;
7523;SDS011;3803;51.666;7.630;2022-12-20T00:28:17;3.13;;;2.47;;
7523;SDS011;3803;51.666;7.630;2022-12-20T00:28:39;4.37;;;2.50;;
7523;SDS011;3803;51.666;7.630;2022-12-20T00:29:00;4.25;;;2.50;;
7523;SDS011;3803;51.666;7.630;2022-12-20T00:29:21;3.85;;;2.35;;
7523;SDS011;3803;51.666;7.630;2022-12-20T00:29:42;3.10;;;2.53;;
7523;SDS011;3803;51.666;7.630;2022-12-20T00:30:03;3.40;;;2.75;;
7523;SDS011;3803;51.666;7.630;2022-12-20T00:30:25;4.00;;;3.00;;
7523;SDS011;3803;51.666;7.630;2022-12-20T00:30:46;3.40;;;2.80;;
7523;SDS011;3803;51.666;7.630;2022-12-20T00:31:13;3.45;;;2.80;;
7523;SDS011;3803;51.666;7.630;2022-12-20T00:31:35;3.00;;;2.60;;
7523;SDS011;3803;51.666;7.630;2022-12-20T00:31:56;3.00;;;2.70;;
7523;SDS011;3803;51.666;7.630;2022-12-20T00:32:17;3.20;;;2.90;;
7523;SDS011;3803;51.666;7.630;2022-12-20T00:32:37;3.10;;;2.90;;
7523;SDS011;3803;51.666;7.630;2022-12-20T00:32:58;2.90;;;2.70;;
7523;SDS011;3803;51.666;7.630;2022-12-20T00:33:18;3.83;;;2.73;;
7523;SDS011;3803;51.666;7.630;2022-12-20T00:33:39;4.20;;;2.90;;
7523;SDS011;3803;51.666;7.630;2022-12-20T00:34:02;4.95;;;2.85;;
7523;SDS011;3803;51.666;7.630;2022-12-20T00:34:23;3.78;;;2.70;;
7523;SDS011;3803;51.666;7.630;2022-12-20T00:34:44;3.90;;;2.60;;
7523;SDS011;3803;51.666;7.630;2022-12-20T00:35:04;3.30;;;2.60;;
7523;SDS011;3803;51.666;7.630;2022-12-20T00:35:26;2.97;;;2.53;;
7523;SDS011;3803;51.666;7.630;2022-12-20T00:35:47;2.80;;;2.58;;
7523;SDS011;3803;51.666;7.630;2022-12-20T00:36:07;2.80;;;2.60;;
7523;SDS011;3803;51.666;7.630;2022-12-20T00:36:29;3.03;;;2.80;;
7523;SDS011;3803;51.666;7.630;2022-12-20T00:36:50;3.00;;;2.80;;
7523;SDS011;3803;51.666;7.630;2022-12-20T00:37:11;3.30;;;3.00;;
7523;SDS011;3803;51.666;7.630;2022-12-20T00:37:32;3.30;;;3.00;;
7523;SDS011;3803;51.666;7.630;2022-12-20T00:37:53;3.45;;;2.90;;
7523;SDS011;3803;51.666;7.630;2022-12-20T00:38:13;3.85;;;2.67;;
7523;SDS011;3803;51.666;7.630;2022-12-20T00:38:34;4.10;;;2.60;;
7523;SDS011;3803;51.666;7.630;2022-12-20T00:38:55;3.90;;;2.70;;
7523;SDS011;3803;51.666;7.630;2022-12-20T00:39:17;3.20;;;2.70;;
7523;SDS011;3803;51.666;7.630;2022-12-20T00:39:38;2.90;;;2.60;;
7523;SDS011;3803;51.666;7.630;2022-12-20T00:39:58;2.93;;;2.70;;
7523;SDS011;3803;51.666;7.630;2022-12-20T00:40:19;3.00;;;2.70;;
7523;SDS011;3803;51.666;7.630;2022-12-20T00:40:40;3.08;;;2.78;;
7523;SDS011;3803;51.666;7.630;2022-12-20T00:41:07;2.90;;;2.60;;
7523;SDS011;3803;51.666;7.630;2022-12-20T00:41:32;2.85;;;2.60;;
7523;SDS011;3803;51.666;7.630;2022-12-20T00:41:54;3.20;;;2.70;;
7523;SDS011;3803;51.666;7.630;2022-12-20T00:42:14;3.40;;;2.60;;
7523;SDS011;3803;51.666;7.630;2022-12-20T00:42:35;3.58;;;2.80;;
7523;SDS011;3803;51.666;7.630;2022-12-20T00:42:55;3.22;;;2.80;;
7523;SDS011;3803;51.666;7.630;2022-12-20T00:43:16;3.00;;;2.80;;
7523;SDS011;3803;51.666;7.630;2022-12-20T00:43:37;3.00;;;2.60;;
7523;SDS011;3803;51.666;7.630;2022-12-20T00:43:58;3.13;;;2.70;;
7523;SDS011;3803;51.666;7.630;2022-12-20T00:44:19;3.60;;;2.83;;
7523;SDS011;3803;51.666;7.630;2022-12-20T00:44:40;4.43;;;2.95;;
7523;SDS011;3803;51.666;7.630;2022-12-20T00:45:01;4.50;;;2.80;;
7523;SDS011;3803;51.666;7.630;2022-12-20T00:45:22;3.95;;;2.65;;
7523;SDS011;3803;51.666;7.630;2022-12-20T00:45:43;3.23;;;2.60;;
7523;SDS011;3803;51.666;7.630;2022-12-20T00:46:03;3.08;;;2.60;;
7523;SDS011;3803;51.666;7.630;2022-12-20T00:46:26;3.00;;;2.65;;
7523;SDS011;3803;51.666;7.630;2022-12-20T00:46:47;2.97;;;2.67;;
7523;SDS011;3803;51.666;7.630;2022-12-20T00:47:07;3.00;;;2.70;;
7523;SDS011;3803;51.666;7.630;2022-12-20T00:47:28;2.95;;;2.65;;
7523;SDS011;3803;51.666;7.630;2022-12-20T00:47:48;2.87;;;2.57;;
7523;SDS011;3803;51.666;7.630;2022-12-20T00:48:09;3.50;;;2.50;;
7523;SDS011;3803;51.666;7.630;2022-12-20T00:48:30;4.15;;;2.60;;
7523;SDS011;3803;51.666;7.630;2022-12-20T00:48:52;4.90;;;2.83;;
7523;SDS011;3803;51.666;7.630;2022-12-20T00:49:13;4.32;;;2.70;;
7523;SDS011;3803;51.666;7.630;2022-12-20T00:49:35;3.53;;;2.67;;
7523;SDS011;3803;51.666;7.630;2022-12-20T00:49:56;2.90;;;2.60;;
7523;SDS011;3803;51.666;7.630;2022-12-20T00:50:16;2.90;;;2.70;;
7523;SDS011;3803;51.666;7.630;2022-12-20T00:50:37;3.00;;;2.80;;
7523;SDS011;3803;51.666;7.630;2022-12-20T00:50:58;2.93;;;2.73;;
7523;SDS011;3803;51.666;7.630;2022-12-20T00:51:22;2.75;;;2.55;;
7523;SDS011;3803;51.666;7.630;2022-12-20T00:51:45;2.80;;;2.60;;
7523;SDS011;3803;51.666;7.630;2022-12-20T00:52:06;2.95;;;2.72;;
7523;SDS011;3803;51.666;7.630;2022-12-20T00:52:27;3.17;;;2.87;;
7523;SDS011;3803;51.666;7.630;2022-12-20T00:52:48;3.22;;;2.92;;
7523;SDS011;3803;51.666;7.630;2022-12-20T00:53:08;2.90;;;2.70;;
7523;SDS011;3803;51.666;7.630;2022-12-20T00:53:30;3.00;;;2.80;;
7523;SDS011;3803;51.666;7.630;2022-12-20T00:53:51;2.90;;;2.60;;
7523;SDS011;3803;51.666;7.630;2022-12-20T00:54:12;3.15;;;2.72;;
7523;SDS011;3803;51.666;7.630;2022-12-20T00:54:33;3.13;;;2.63;;
7523;SDS011;3803;51.666;7.630;2022-12-20T00:54:54;3.42;;;2.78;;
7523;SDS011;3803;51.666;7.630;2022-12-20T00:56:01;3.00;;;2.10;;
7523;SDS011;3803;51.666;7.630;2022-12-20T00:56:23;3.20;;;2.38;;
7523;SDS011;3803;51.666;7.630;2022-12-20T00:56:44;2.60;;;2.40;;
7523;SDS011;3803;51.666;7.630;2022-12-20T00:57:04;3.70;;;2.50;;
7523;SDS011;3803;51.666;7.630;2022-12-20T00:57:25;3.87;;;2.70;;
7523;SDS011;3803;51.666;7.630;2022-12-20T00:57:45;4.40;;;2.90;;
7523;SDS011;3803;51.666;7.630;2022-12-20T00:58:06;3.67;;;3.08;;
7523;SDS011;3803;51.666;7.630;2022-12-20T00:58:27;3.70;;;3.00;;
7523;SDS011;3803;51.666;7.630;2022-12-20T00:58:47;3.90;;;3.10;;
7523;SDS011;3803;51.666;7.630;2022-12-20T00:59:08;3.22;;;2.70;;
7523;SDS011;3803;51.666;7.630;2022-12-20T00:59:29;2.90;;;2.60;;
7523;SDS011;3803;51.666;7.630;2022-12-20T00:59:49;2.60;;;2.40;;
7523;SDS011;3803;51.666;7.630;2022-12-20T01:00:10;3.10;;;2.70;;
7523;SDS011;3803;51.666;7.630;2022-12-20T01:00:31;3.60;;;2.80;;
7523;SDS011;3803;51.666;7.630;2022-12-20T01:00:51;3.80;;;2.70;;
7523;SDS011;3803;51.666;7.630;2022-12-20T01:01:43;3.22;;;2.65;;
7523;SDS011;3803;51.666;7.630;2022-12-20T01:02:05;3.50;;;2.70;;
7523;SDS011;3803;51.666;7.630;2022-12-20T01:02:25;3.90;;;2.67;;
7523;SDS011;3803;51.666;7.630;2022-12-20T01:02:46;3.40;;;2.63;;
7523;SDS011;3803;51.666;7.630;2022-12-20T01:03:07;3.00;;;2.60;;
7523;SDS011;3803;51.666;7.630;2022-12-20T01:03:27;2.80;;;2.60;;
7523;SDS011;3803;51.666;7.630;2022-12-20T01:03:48;2.57;;;2.37;;
7523;SDS011;3803;51.666;7.630;2022-12-20T01:04:10;2.50;;;2.30;;
7523;SDS011;3803;51.666;7.630;2022-12-20T01:04:30;2.65;;;2.40;;
7523;SDS011;3803;51.666;7.630;2022-12-20T01:04:51;3.30;;;2.70;;
7523;SDS011;3803;51.666;7.630;2022-12-20T01:05:12;3.10;;;2.70;;
7523;SDS011;3803;51.666;7.630;2022-12-20T01:05:32;3.55;;;2.83;;
7523;SDS011;3803;51.666;7.630;2022-12-20T01:05:54;3.53;;;2.60;;
7523;SDS011;3803;51.666;7.630;2022-12-20T01:06:16;3.63;;;2.60;;
7523;SDS011;3803;51.666;7.630;2022-12-20T01:06:37;3.45;;;2.60;;
7523;SDS011;3803;51.666;7.630;2022-12-20T01:06:58;3.05;;;2.70;;
7523;SDS011;3803;51.666;7.630;2022-12-20T01:07:19;3.40;;;3.00;;
7523;SDS011;3803;51.666;7.630;2022-12-20T01:07:39;3.50;;;2.90;;
7523;SDS011;3803;51.666;7.630;2022-12-20T01:08:00;3.30;;;2.80;;
7523;SDS011;3803;51.666;7.630;2022-12-20T01:08:21;3.20;;;2.60;;
7523;SDS011;3803;51.666;7.630;2022-12-20T01:08:43;2.78;;;2.40;;
7523;SDS011;3803;51.666;7.630;2022-12-20T01:09:04;3.40;;;2.60;;
7523;SDS011;3803;51.666;7.630;2022-12-20T01:09:25;3.00;;;2.50;;
7523;SDS011;3803;51.666;7.630;2022-12-20T01:09:45;3.05;;;2.50;;
7523;SDS011;3803;51.666;7.630;2022-12-20T01:10:07;2.85;;;2.45;;
7523;SDS011;3803;51.666;7.630;2022-12-20T01:10:28;2.72;;;2.40;;
7523;SDS011;3803;51.666;7.630;2022-12-20T01:10:59;2.92;;;2.60;;
7523;SDS011;3803;51.666;7.630;2022-12-20T01:11:25;3.80;;;2.60;;
7523;SDS011;3803;51.666;7.630;2022-12-20T01:11:47;4.18;;;2.60;;
7523;SDS011;3803;51.666;7.630;2022-12-20T01:12:08;2.90;;;2.60;;
7523;SDS011;3803;51.666;7.630;2022-12-20T01:12:29;2.80;;;2.50;;
7523;SDS011;3803;51.666;7.630;2022-12-20T01:12:50;2.70;;;2.50;;
7523;SDS011;3803;51.666;7.630;2022-12-20T01:13:11;2.67;;;2.47;;
7523;SDS011;3803;51.666;7.630;2022-12-20T01:13:32;2.80;;;2.60;;
7523;SDS011;3803;51.666;7.630;2022-12-20T01:13:55;3.00;;;2.70;;
7523;SDS011;3803;51.666;7.630;2022-12-20T01:14:17;2.90;;;2.70;;
7523;SDS011;3803;51.666;7.630;2022-12-20T01:14:38;2.93;;;2.70;;
7523;SDS011;3803;51.666;7.630;2022-12-20T01:14:58;2.80;;;2.60;;
7523;SDS011;3803;51.666;7.630;2022-12-20T01:15:19;3.20;;;2.78;;
7523;SDS011;3803;51.666;7.630;2022-12-20T01:15:40;2.95;;;2.65;;
7523;SDS011;3803;51.666;7.630;2022-12-20T01:16:08;3.30;;;2.67;;
7523;SDS011;3803;51.666;7.630;2022-12-20T01:16:48;3.17;;;2.50;;
7523;SDS011;3803;51.666;7.630;2022-12-20T01:17:09;3.55;;;2.58;;
7523;SDS011;3803;51.666;7.630;2022-12-20T01:17:29;3.30;;;2.40;;
7523;SDS011;3803;51.666;7.630;2022-12-20T01:17:50;3.80;;;2.60;;
7523;SDS011;3803;51.666;7.630;2022-12-20T01:18:11;2.90;;;2.50;;
7523;SDS011;3803;51.666;7.630;2022-12-20T01:18:31;3.38;;;2.60;;
7523;SDS011;3803;51.666;7.630;2022-12-20T01:18:52;4.30;;;2.80;;
7523;SDS011;3803;51.666;7.630;2022-12-20T01:19:14;4.63;;;2.80;;
7523;SDS011;3803;51.666;7.630;2022-12-20T01:19:36;3.90;;;2.70;;
7523;SDS011;3803;51.666;7.630;2022-12-20T01:19:57;3.00;;;2.70;;
7523;SDS011;3803;51.666;7.630;2022-12-20T01:20:17;2.90;;;2.70;;
7523;SDS011;3803;51.666;7.630;2022-12-20T01:20:38;3.00;;;2.70;;
7523;SDS011;3803;51.666;7.630;2022-12-20T01:20:59;3.00;;;2.60;;
7523;SDS011;3803;51.666;7.630;2022-12-20T01:21:25;2.90;;;2.60;;
7523;SDS011;3803;51.666;7.630;2022-12-20T01:21:46;2.80;;;2.50;;
7523;SDS011;3803;51.666;7.630;2022-12-20T01:22:07;2.75;;;2.50;;
7523;SDS011;3803;51.666;7.630;2022-12-20T01:22:27;2.67;;;2.47;;
7523;SDS011;3803;51.666;7.630;2022-12-20T01:22:48;2.50;;;2.30;;
7523;SDS011;3803;51.666;7.630;2022-12-20T01:23:10;3.00;;;2.40;;
7523;SDS011;3803;51.666;7.630;2022-12-20T01:23:30;3.20;;;2.50;;
7523;SDS011;3803;51.666;7.630;2022-12-20T01:23:51;3.70;;;2.50;;
7523;SDS011;3803;51.666;7.630;2022-12-20T01:24:13;3.38;;;2.50;;
7523;SDS011;3803;51.666;7.630;2022-12-20T01:24:35;3.05;;;2.50;;
7523;SDS011;3803;51.666;7.630;2022-12-20T01:24:56;2.88;;;2.45;;
7523;SDS011;3803;51.666;7.630;2022-12-20T01:25:16;3.00;;;2.40;;
7523;SDS011;3803;51.666;7.630;2022-12-20T01:25:37;3.08;;;2.38;;
7523;SDS011;3803;51.666;7.630;2022-12-20T01:25:58;3.58;;;2.45;;
7523;SDS011;3803;51.666;7.630;2022-12-20T01:26:20;2.90;;;2.60;;
7523;SDS011;3803;51.666;7.630;2022-12-20T01:26:43;2.70;;;2.40;;
7523;SDS011;3803;51.666;7.630;2022-12-20T01:27:04;2.63;;;2.40;;
7523;SDS011;3803;51.666;7.630;2022-12-20T01:27:24;2.88;;;2.40;;
7523;SDS011;3803;51.666;7.630;2022-12-20T01:27:45;3.17;;;2.58;;
7523;SDS011;3803;51.666;7.630;2022-12-20T01:28:06;2.88;;;2.58;;
7523;SDS011;3803;51.666;7.630;2022-12-20T01:28:27;2.80;;;2.60;;
7523;SDS011;3803;51.666;7.630;2022-12-20T01:28:50;2.67;;;2.47;;
7523;SDS011;3803;51.666;7.630;2022-12-20T01:29:12;2.90;;;2.60;;
7523;SDS011;3803;51.666;7.630;2022-12-20T01:29:33;2.90;;;2.50;;
7523;SDS011;3803;51.666;7.630;2022-12-20T01:29:54;2.60;;;2.40;;
7523;SDS011;3803;51.666;7.630;2022-12-20T01:30:14;2.60;;;2.40;;
7523;SDS011;3803;51.666;7.630;2022-12-20T01:30:38;2.60;;;2.40;;
7523;SDS011;3803;51.666;7.630;2022-12-20T01:30:59;2.65;;;2.40;;
7523;SDS011;3803;51.666;7.630;2022-12-20T01:31:21;2.55;;;2.35;;
7523;SDS011;3803;51.666;7.630;2022-12-20T01:31:42;2.80;;;2.50;;
7523;SDS011;3803;51.666;7.630;2022-12-20T01:32:03;3.20;;;2.70;;
7523;SDS011;3803;51.666;7.630;2022-12-20T01:32:24;3.85;;;3.10;;
7523;SDS011;3803;51.666;7.630;2022-12-20T01:32:45;4.38;;;3.15;;
7523;SDS011;3803;51.666;7.630;2022-12-20T01:33:05;3.63;;;3.00;;
7523;SDS011;3803;51.666;7.630;2022-12-20T01:33:26;2.75;;;2.45;;
7523;SDS011;3803;51.666;7.630;2022-12-20T01:33:48;2.60;;;2.40;;
7523;SDS011;3803;51.666;7.630;2022-12-20T01:34:10;2.72;;;2.53;;
7523;SDS011;3803;51.666;7.630;2022-12-20T01:34:30;2.70;;;2.50;;
7523;SDS011;3803;51.666;7.630;2022-12-20T01:34:52;2.80;;;2.60;;
7523;SDS011;3803;51.666;7.630;2022-12-20T01:35:13;2.85;;;2.58;;
7523;SDS011;3803;51.666;7.630;2022-12-20T01:35:35;3.10;;;2.80;;
7523;SDS011;3803;51.666;7.630;2022-12-20T01:36:00;3.45;;;2.65;;
7523;SDS011;3803;51.666;7.630;2022-12-20T01:36:24;3.65;;;2.47;;
7523;SDS011;3803;51.666;7.630;2022-12-20T01:36:46;3.63;;;2.30;;
7523;SDS011;3803;51.666;7.630;2022-12-20T01:37:08;2.80;;;2.50;;
7523;SDS011;3803;51.666;7.630;2022-12-20T01:37:29;2.60;;;2.40;;
7523;SDS011;3803;51.666;7.630;2022-12-20T01:37:51;2.70;;;2.40;;
7523;SDS011;3803;51.666;7.630;2022-12-20T01:38:11;3.42;;;2.33;;
7523;SDS011;3803;51.666;7.630;2022-12-20T01:38:32;3.55;;;2.40;;
7523;SDS011;3803;51.666;7.630;2022-12-20T01:39:00;2.95;;;2.40;;
7523;SDS011;3803;51.666;7.630;2022-12-20T01:39:26;2.70;;;2.50;;
7523;SDS011;3803;51.666;7.630;2022-12-20T01:39:46;2.77;;;2.57;;
7523;SDS011;3803;51.666;7.630;2022-12-20T01:40:07;2.80;;;2.60;;
7523;SDS011;3803;51.666;7.630;2022-12-20T01:40:29;3.08;;;2.72;;
7523;SDS011;3803;51.666;7.630;2022-12-20T01:40:52;3.72;;;2.75;;
7523;SDS011;3803;51.666;7.630;2022-12-20T01:41:18;4.85;;;3.00;;
7523;SDS011;3803;51.666;7.630;2022-12-20T01:41:41;4.60;;;2.80;;
7523;SDS011;3803;51.666;7.630;2022-12-20T01:42:03;3.38;;;2.50;;
7523;SDS011;3803;51.666;7.630;2022-12-20T01:42:24;2.88;;;2.40;;
7523;SDS011;3803;51.666;7.630;2022-12-20T01:42:44;3.08;;;2.50;;
7523;SDS011;3803;51.666;7.630;2022-12-20T01:43:07;3.00;;;2.50;;
7523;SDS011;3803;51.666;7.630;2022-12-20T01:45:01;2.70;;;2.20;;
7523;SDS011;3803;51.666;7.630;2022-12-20T01:45:26;2.90;;;2.50;;
7523;SDS011;3803;51.666;7.630;2022-12-20T01:45:48;2.78;;;2.58;;
7523;SDS011;3803;51.666;7.630;2022-12-20T01:46:09;2.88;;;2.67;;
7523;SDS011;3803;51.666;7.630;2022-12-20T01:46:32;2.88;;;2.60;;
7523;SDS011;3803;51.666;7.630;2022-12-20T01:46:55;2.80;;;2.50;;
7523;SDS011;3803;51.666;7.630;2022-12-20T01:47:16;2.65;;;2.30;;
7523;SDS011;3803;51.666;7.630;2022-12-20T01:47:37;2.57;;;2.30;;
7523;SDS011;3803;51.666;7.630;2022-12-20T01:47:59;2.70;;;2.38;;
7523;SDS011;3803;51.666;7.630;2022-12-20T01:48:24;2.53;;;2.33;;
7523;SDS011;3803;51.666;7.630;2022-12-20T01:48:47;2.50;;;2.30;;
7523;SDS011;3803;51.666;7.630;2022-12-20T01:49:50;3.28;;;2.45;;
7523;SDS011;3803;51.666;7.630;2022-12-20T01:50:13;2.63;;;2.40;;
7523;SDS011;3803;51.666;7.630;2022-12-20T01:50:33;3.10;;;2.55;;
7523;SDS011;3803;51.666;7.630;2022-12-20T01:50:54;3.40;;;2.60;;
7523;SDS011;3803;51.666;7.630;2022-12-20T01:51:15;4.43;;;2.70;;
7523;SDS011;3803;51.666;7.630;2022-12-20T01:51:42;3.78;;;2.60;;
7523;SDS011;3803;51.666;7.630;2022-12-20T01:52:07;3.08;;;2.65;;
7523;SDS011;3803;51.666;7.630;2022-12-20T01:52:40;2.95;;;2.65;;
7523;SDS011;3803;51.666;7.630;2022-12-20T01:53:04;2.88;;;2.58;;
7523;SDS011;3803;51.666;7.630;2022-12-20T01:53:24;2.80;;;2.50;;
7523;SDS011;3803;51.666;7.630;2022-12-20T01:53:46;2.90;;;2.60;;
7523;SDS011;3803;51.666;7.630;2022-12-20T01:54:13;2.78;;;2.55;;
7523;SDS011;3803;51.666;7.630;2022-12-20T01:54:39;3.42;;;2.80;;
7523;SDS011;3803;51.666;7.630;2022-12-20T01:55:37;2.60;;;2.38;;
7523;SDS011;3803;51.666;7.630;2022-12-20T01:55:58;2.70;;;2.33;;
7523;SDS011;3803;51.666;7.630;2022-12-20T01:56:23;2.80;;;2.50;;
7523;SDS011;3803;51.666;7.630;2022-12-20T01:56:44;2.63;;;2.42;;
7523;SDS011;3803;51.666;7.630;2022-12-20T01:57:17;2.60;;;2.40;;
7523;SDS011;3803;51.666;7.630;2022-12-20T01:57:50;2.83;;;2.50;;
7523;SDS011;3803;51.666;7.630;2022-12-20T01:58:18;3.05;;;2.40;;
7523;SDS011;3803;51.666;7.630;2022-12-20T01:58:40;2.78;;;2.25;;
7523;SDS011;3803;51.666;7.630;2022-12-20T01:59:01;2.60;;;2.30;;
7523;SDS011;3803;51.666;7.630;2022-12-20T01:59:22;3.95;;;2.55;;
7523;SDS011;3803;51.666;7.630;2022-12-20T01:59:45;3.80;;;2.60;;
7523;SDS011;3803;51.666;7.630;2022-12-20T02:00:09;3.03;;;2.53;;
7523;SDS011;3803;51.666;7.630;2022-12-20T02:00:36;4.60;;;2.60;;
7523;SDS011;3803;51.666;7.630;2022-12-20T02:00:57;4.10;;;2.70;;
7523;SDS011;3803;51.666;7.630;2022-12-20T02:01:18;4.22;;;2.60;;
7523;SDS011;3803;51.666;7.630;2022-12-20T02:01:40;2.50;;;2.30;;
7523;SDS011;3803;51.666;7.630;2022-12-20T02:02:03;2.50;;;2.30;;
7523;SDS011;3803;51.666;7.630;2022-12-20T02:02:27;2.53;;;2.33;;
7523;SDS011;3803;51.666;7.630;2022-12-20T02:02:48;3.42;;;2.50;;
7523;SDS011;3803;51.666;7.630;2022-12-20T02:03:10;4.10;;;2.70;;
7523;SDS011;3803;51.666;7.630;2022-12-20T02:03:32;4.15;;;2.70;;
7523;SDS011;3803;51.666;7.630;2022-12-20T02:03:53;4.57;;;2.60;;
7523;SDS011;3803;51.666;7.630;2022-12-20T02:04:14;3.30;;;2.40;;
7523;SDS011;3803;51.666;7.630;2022-12-20T02:04:37;3.38;;;2.33;;
7523;SDS011;3803;51.666;7.630;2022-12-20T02:04:58;4.28;;;2.50;;
7523;SDS011;3803;51.666;7.630;2022-12-20T02:05:19;4.47;;;2.67;;
7523;SDS011;3803;51.666;7.630;2022-12-20T02:05:43;4.80;;;2.80;;
7523;SDS011;3803;51.666;7.630;2022-12-20T02:06:25;3.58;;;2.70;;
7523;SDS011;3803;51.666;7.630;2022-12-20T02:06:47;2.50;;;2.30;;
7523;SDS011;3803;51.666;7.630;2022-12-20T02:07:07;2.40;;;2.20;;
7523;SDS011;3803;51.666;7.630;2022-12-20T02:07:32;2.80;;;2.60;;
7523;SDS011;3803;51.666;7.630;2022-12-20T02:07:57;2.80;;;2.60;;
7523;SDS011;3803;51.666;7.630;2022-12-20T02:08:18;2.58;;;2.38;;
7523;SDS011;3803;51.666;7.630;2022-12-20T02:08:39;2.50;;;2.30;;
7523;SDS011;3803;51.666;7.630;2022-12-20T02:09:00;3.78;;;2.50;;
7523;SDS011;3803;51.666;7.630;2022-12-20T02:09:22;3.90;;;2.60;;
7523;SDS011;3803;51.666;7.630;2022-12-20T02:09:43;3.10;;;2.50;;
7523;SDS011;3803;51.666;7.630;2022-12-20T02:10:04;2.67;;;2.47;;
7523;SDS011;3803;51.666;7.630;2022-12-20T02:10:28;3.25;;;2.60;;
7523;SDS011;3803;51.666;7.630;2022-12-20T02:11:09;3.15;;;2.50;;
7523;SDS011;3803;51.666;7.630;2022-12-20T02:12:33;2.65;;;2.42;;
7523;SDS011;3803;51.666;7.630;2022-12-20T02:13:03;2.75;;;2.47;;
7523;SDS011;3803;51.666;7.630;2022-12-20T02:15:54;3.60;;;2.30;;
7523;SDS011;3803;51.666;7.630;2022-12-20T02:16:27;3.47;;;2.40;;
7523;SDS011;3803;51.666;7.630;2022-12-20T02:16:59;2.70;;;2.50;;
7523;SDS011;3803;51.666;7.630;2022-12-20T02:17:56;3.63;;;2.80;;
7523;SDS011;3803;51.666;7.630;2022-12-20T02:18:28;3.10;;;2.45;;
7523;SDS011;3803;51.666;7.630;2022-12-20T02:19:00;3.20;;;2.30;;
7523;SDS011;3803;51.666;7.630;2022-12-20T02:20:02;2.60;;;2.40;;
7523;SDS011;3803;51.666;7.630;2022-12-20T02:21:33;2.30;;;2.10;;
7523;SDS011;3803;51.666;7.630;2022-12-20T02:22:15;2.70;;;2.50;;
7523;SDS011;3803;51.666;7.630;2022-12-20T02:26:58;2.80;;;2.28;;
7523;SDS011;3803;51.666;7.630;2022-12-20T02:27:42;2.80;;;2.50;;
7523;SDS011;3803;51.666;7.630;2022-12-20T02:29:20;2.90;;;2.30;;
7523;SDS011;3803;51.666;7.630;2022-12-20T02:30:22;4.05;;;2.58;;
7523;SDS011;3803;51.666;7.630;2022-12-20T02:30:40;4.40;;;2.40;;
7523;SDS011;3803;51.666;7.630;2022-12-20T02:31:04;2.20;;;2.00;;
7523;SDS011;3803;51.666;7.630;2022-12-20T02:31:54;2.50;;;2.30;;
7523;SDS011;3803;51.666;7.630;2022-12-20T02:32:19;2.75;;;2.42;;
7523;SDS011;3803;51.666;7.630;2022-12-20T02:33:13;3.03;;;2.50;;
7523;SDS011;3803;51.666;7.630;2022-12-20T02:33:34;2.88;;;2.35;;
7523;SDS011;3803;51.666;7.630;2022-12-20T02:33:55;2.50;;;2.30;;
7523;SDS011;3803;51.666;7.630;2022-12-20T02:34:17;2.72;;;2.40;;
7523;SDS011;3803;51.666;7.630;2022-12-20T02:34:41;3.15;;;2.50;;